This is the latest recevied weather packets stored in our database for station/object EA6MW-10. If no packets are shown the sender has not sent any weather packets the latest 10 day(s).
| Time | Temp. | Humidity | Pressure | Rain* | Wind** | Luminosity | Snow |
|---|---|---|---|---|---|---|---|
| 1777702062 | 22.22° C | 56% | 1022.8 hPa | - | - | - | - |
| 1777701162 | 18.33° C | 65% | 1022.6 hPa | - | - | - | - |
| 1777700262 | 17.78° C | 62% | 1022.4 hPa | - | - | - | - |
| 1777699361 | 17.78° C | 65% | 1022.4 hPa | - | - | - | - |
| 1777698461 | 16.11° C | 68% | 1022.5 hPa | - | - | - | - |
| 1777697561 | 16.11° C | 68% | 1022.3 hPa | - | - | - | - |
| 1777696661 | 15.56° C | 70% | 1022.2 hPa | - | - | - | - |
| 1777695761 | 15.56° C | 68% | 1022.4 hPa | - | - | - | - |
| 1777694860 | 16.11° C | 69% | 1022.4 hPa | - | - | - | - |
| 1777693960 | 16.67° C | 67% | 1022.5 hPa | - | - | - | - |
| 1777693060 | 17.22° C | 61% | 1022.3 hPa | - | - | - | - |
| 1777692160 | 17.22° C | 61% | 1022.4 hPa | - | - | - | - |
| 1777691259 | 16.67° C | 62% | 1022.5 hPa | - | - | - | - |
| 1777690359 | 16.67° C | 63% | 1022.5 hPa | - | - | - | - |
| 1777689458 | 16.67° C | 64% | 1022.6 hPa | - | - | - | - |
| 1777688558 | 16.11° C | 66% | 1022.8 hPa | - | - | - | - |
| 1777687658 | 16.11° C | 66% | 1022.8 hPa | - | - | - | - |
| 1777686758 | 16.67° C | 65% | 1022.9 hPa | - | - | - | - |
| 1777685858 | 16.67° C | 67% | 1023 hPa | - | - | - | - |
| 1777684957 | 16.67° C | 68% | 1022.9 hPa | - | - | - | - |
| 1777684056 | 17.22° C | 67% | 1022.9 hPa | - | - | - | - |
| 1777683156 | 17.78° C | 63% | 1023 hPa | - | - | - | - |
| 1777682256 | 17.78° C | 62% | 1023.1 hPa | - | - | - | - |
| 1777681355 | 17.78° C | 63% | 1023.5 hPa | - | - | - | - |
| 1777680455 | 17.78° C | 62% | 1023.6 hPa | - | - | - | - |
* Rain since midnight (hover to see other rain measurements)
** Current wind speed in m/s (hover to see current wind gust speed)